Дата Пункты Температура Давл., мм. Влажн., % Ветер Погодные явления
Воздуха Воды Направл. Скорость
08.03.19 02:00 Одесса 10.0 5.0 760 78 Пд 6 14 ГОДИН
08.03.19 11:00 Одесса 9.0 5.0 760 78 Пд-З 5 11 ГОДИН
08.03.19 08:00 Одесса 7.0 5.0 761 85 Пд-З 4 08 ГОДИН
08.03.19 05:00 Одесса 6.0 5.0 761 88 Пд-З 3 05 ГОДИН
08.03.19 02:00 Одесса 5.0 5.0 761 94 Пд 4 02 ГОДИНИ
07.03.19 11:00 Одесса 5.0 5.0 762 95 Пд 4 23 ГОДИНИ
07.03.19 08:00 Одесса 5.0 5.0 763 93 Пд 3 20 ГОДИН
07.03.19 05:00 Одесса 5.0 5.0 763 83 Пд 2 17 ГОДИН
07.03.19 02:00 Одесса 6.0 5.0 764 78 Пд 3 14 ГОДИН
07.03.19 11:00 Одесса 6.0 5.0 765 72 Пд 2 11 ГОДИН
07.03.19 08:00 Одесса 5.0 5.0 765 76 Пн 0 08 ГОДИН
07.03.19 05:00 Одесса 4.0 5.0 764 77 Пн 2 05 ГОДИН
07.03.19 02:00 Одесса 5.0 5.0 763 73 Пн-З 1 02 ГОДИНИ
06.03.19 11:00 Одесса 5.0 5.0 762 76 Пн-З 4 23 ГОДИНИ
06.03.19 08:00 Одесса 6.0 5.0 761 79 Пн-З 5 20 ГОДИН
06.03.19 05:00 Одесса 8.0 5.0 759 66 З 2 17 ГОДИН
06.03.19 02:00 Одесса 11.0 5.0 757 51 Пн 0 14 ГОДИН
06.03.19 11:00 Одесса 12.0 4.0 757 50 Пн 2 11 ГОДИН
06.03.19 08:00 Одесса 6.0 4.0 756 64 Пн 0 08 ГОДИН
06.03.19 05:00 Одесса 5.0 4.0 755 80 З 1 05 ГОДИН
Количество строк
1 2 3 4 5 6 7 8 9 10
Page 7 of 472